createdAt,value
2018-11-26T00:00:36.107Z,96.30
2018-11-26T00:05:54.768Z,96.11
2018-11-26T00:11:24.559Z,96.04
2018-11-26T00:16:43.294Z,96.72
2018-11-26T00:22:01.882Z,96.04
2018-11-26T00:27:20.480Z,95.87
2018-11-26T00:32:39.039Z,96.32
2018-11-26T00:37:57.684Z,96.00
2018-11-26T00:43:16.228Z,96.26
2018-11-26T00:48:34.749Z,96.19
2018-11-26T00:53:53.300Z,95.94
2018-11-26T00:59:11.961Z,95.29
2018-11-26T01:04:30.603Z,95.27
2018-11-26T01:09:49.207Z,95.55
2018-11-26T01:15:08.095Z,95.71
2018-11-26T01:20:26.749Z,96.03
2018-11-26T01:25:45.459Z,95.71
2018-11-26T01:31:03.948Z,95.58
2018-11-26T01:36:22.568Z,95.62
2018-11-26T01:41:41.123Z,95.39
2018-11-26T01:46:59.659Z,95.40
2018-11-26T01:52:18.190Z,95.36
2018-11-26T01:57:36.812Z,94.98
2018-11-26T02:02:55.537Z,95.78
2018-11-26T02:08:14.172Z,95.48
2018-11-26T02:13:32.727Z,95.69
2018-11-26T02:18:51.473Z,95.53
2018-11-26T02:24:09.983Z,95.49
2018-11-26T02:29:28.674Z,95.38
2018-11-26T02:34:47.297Z,95.28
2018-11-26T02:40:08.110Z,95.29
2018-11-26T02:45:27.064Z,95.60
2018-11-26T02:50:45.580Z,95.26
2018-11-26T02:56:04.111Z,94.90
2018-11-26T03:01:22.717Z,95.14
2018-11-26T03:06:41.240Z,95.11
2018-11-26T03:11:59.925Z,95.16
2018-11-26T03:17:18.472Z,95.21
2018-11-26T03:22:37.141Z,94.66
2018-11-26T03:27:55.796Z,94.73
2018-11-26T03:33:14.359Z,94.88
2018-11-26T03:38:44.479Z,94.82
2018-11-26T03:44:03.011Z,95.12
2018-11-26T03:49:21.587Z,95.31
2018-11-26T03:54:40.143Z,94.99
2018-11-26T03:59:58.728Z,94.78
2018-11-26T04:05:17.929Z,94.80
2018-11-26T04:10:36.463Z,94.55
2018-11-26T04:15:55.031Z,94.70
2018-11-26T04:21:13.541Z,94.47
2018-11-26T04:26:32.064Z,94.15
2018-11-26T04:31:50.640Z,94.76
2018-11-26T04:37:09.149Z,94.87
2018-11-26T04:42:27.666Z,94.34
2018-11-26T04:47:46.209Z,94.25
2018-11-26T04:53:04.872Z,94.75
2018-11-26T04:58:23.448Z,94.73
2018-11-26T05:03:42.006Z,94.43
2018-11-26T05:09:00.715Z,94.39
2018-11-26T05:14:19.252Z,94.46
2018-11-26T05:19:37.831Z,94.37
2018-11-26T05:24:56.365Z,94.25
2018-11-26T05:30:15.052Z,94.46
2018-11-26T05:35:33.827Z,94.20
2018-11-26T05:40:52.429Z,93.71
2018-11-26T05:46:11.138Z,94.08
2018-11-26T05:51:29.715Z,94.09
2018-11-26T05:56:48.225Z,94.02
2018-11-26T06:02:06.868Z,94.03
2018-11-26T06:07:25.468Z,93.25
2018-11-26T06:12:44.042Z,93.23
2018-11-26T06:18:02.579Z,93.69
2018-11-26T06:23:21.290Z,93.58
2018-11-26T06:28:39.943Z,93.70
2018-11-26T06:33:58.478Z,93.79
2018-11-26T06:39:17.043Z,93.41
2018-11-26T06:44:35.559Z,92.83
2018-11-26T06:49:54.228Z,93.76
2018-11-26T06:55:15.136Z,93.82
2018-11-26T07:00:33.739Z,93.54
2018-11-26T07:05:52.384Z,93.78
2018-11-26T07:11:10.943Z,93.53
2018-11-26T07:16:29.456Z,93.84
2018-11-26T07:21:47.968Z,93.55
2018-11-26T07:27:06.873Z,93.41
2018-11-26T07:32:25.389Z,92.95
2018-11-26T07:37:44.024Z,93.52
2018-11-26T07:43:09.947Z,93.08
2018-11-26T07:48:28.629Z,92.97
2018-11-26T07:53:47.220Z,93.02
2018-11-26T07:59:05.764Z,92.98
2018-11-26T08:04:24.307Z,93.52
2018-11-26T08:09:42.823Z,93.32
2018-11-26T08:15:01.393Z,93.09
2018-11-26T08:20:19.964Z,93.02
2018-11-26T08:25:38.700Z,93.25
2018-11-26T08:30:57.299Z,93.40
2018-11-26T08:36:16.087Z,93.60
2018-11-26T08:41:36.713Z,93.22
2018-11-26T08:47:00.929Z,92.92
2018-11-26T08:52:20.413Z,92.63
2018-11-26T08:57:39.024Z,92.50
2018-11-26T09:03:04.007Z,91.92
2018-11-26T09:08:22.611Z,92.76
2018-11-26T09:13:41.300Z,92.25
2018-11-26T09:18:59.867Z,91.54
2018-11-26T09:24:18.376Z,91.60
2018-11-26T09:29:36.931Z,91.73
2018-11-26T09:34:55.483Z,91.28
2018-11-26T09:40:15.267Z,90.94
2018-11-26T09:45:40.089Z,91.21
2018-11-26T09:50:52.358Z,91.30
2018-11-26T09:56:10.940Z,90.34
2018-11-26T10:01:29.556Z,90.81
2018-11-26T10:06:48.075Z,90.62
2018-11-26T10:12:06.615Z,91.27
2018-11-26T10:17:25.208Z,91.04
2018-11-26T10:22:44.274Z,90.55
2018-11-26T10:28:02.945Z,90.74
2018-11-26T10:33:21.527Z,91.45
2018-11-26T10:38:40.116Z,91.18
2018-11-26T10:43:58.690Z,90.29
2018-11-26T10:49:17.181Z,89.89
2018-11-26T10:54:35.812Z,90.46
2018-11-26T10:59:54.427Z,89.79
2018-11-26T11:05:12.991Z,89.68
2018-11-26T11:10:32.873Z,89.82
2018-11-26T11:15:51.457Z,89.46
2018-11-26T11:21:09.989Z,89.77
2018-11-26T11:26:28.552Z,89.21
2018-11-26T11:31:47.145Z,89.50
2018-11-26T11:37:05.823Z,89.84
2018-11-26T11:42:24.364Z,89.23
2018-11-26T11:47:42.967Z,89.80
2018-11-26T11:53:01.481Z,89.58
2018-11-26T11:58:20.014Z,90.04
2018-11-26T12:03:38.594Z,89.12
2018-11-26T12:08:57.409Z,89.82
2018-11-26T12:14:17.250Z,89.33
2018-11-26T12:19:35.921Z,89.44
2018-11-26T12:24:54.524Z,88.78
2018-11-26T12:30:15.557Z,88.24
2018-11-26T12:35:34.384Z,87.87
2018-11-26T12:40:52.872Z,87.46
2018-11-26T12:46:11.475Z,87.12
2018-11-26T12:51:29.984Z,86.78
2018-11-26T12:56:48.581Z,87.30
2018-11-26T13:02:07.546Z,85.85
2018-11-26T13:07:26.113Z,85.57
2018-11-26T13:12:45.078Z,85.70
2018-11-26T13:18:03.680Z,85.28
2018-11-26T13:23:22.235Z,85.47
2018-11-26T13:28:40.784Z,85.72
2018-11-26T13:33:59.353Z,85.25
2018-11-26T13:39:18.026Z,85.34
2018-11-26T13:44:36.614Z,85.31
2018-11-26T13:49:55.168Z,85.38
2018-11-26T13:55:13.736Z,85.63
2018-11-26T14:00:32.423Z,85.79
2018-11-26T14:05:51.142Z,86.30
2018-11-26T14:11:09.786Z,86.20
2018-11-26T14:16:28.378Z,85.42
2018-11-26T14:21:47.195Z,85.26
2018-11-26T14:27:06.250Z,86.37
2018-11-26T14:32:24.815Z,85.74
2018-11-26T14:37:43.507Z,86.15
2018-11-26T14:43:02.047Z,86.50
2018-11-26T14:48:20.560Z,86.38
2018-11-26T14:53:39.115Z,85.74
2018-11-26T14:58:57.879Z,85.74
2018-11-26T15:04:16.766Z,86.53
2018-11-26T15:09:35.375Z,86.31
2018-11-26T15:14:53.958Z,86.60
2018-11-26T15:20:14.099Z,85.87
2018-11-26T15:25:34.321Z,85.89
2018-11-26T15:30:53.226Z,86.45
2018-11-26T15:36:11.822Z,86.80
2018-11-26T15:41:30.373Z,87.54
2018-11-26T15:46:48.965Z,87.35
2018-11-26T15:52:07.537Z,86.95
2018-11-26T15:57:26.117Z,86.53
2018-11-26T16:02:44.797Z,86.22
2018-11-26T16:08:05.426Z,86.89
2018-11-26T16:13:24.068Z,87.64
2018-11-26T16:18:42.614Z,86.95
2018-11-26T16:24:01.195Z,86.87
2018-11-26T16:29:19.769Z,86.89
2018-11-26T16:34:38.362Z,86.98
2018-11-26T16:39:56.936Z,88.16
2018-11-26T16:45:17.960Z,87.42
2018-11-26T16:50:37.384Z,87.57
2018-11-26T16:55:56.013Z,87.81
2018-11-26T17:01:14.632Z,86.10
2018-11-26T17:06:33.190Z,85.95
2018-11-26T17:11:51.751Z,87.52
2018-11-26T17:17:10.334Z,86.93
2018-11-26T17:22:28.923Z,87.07
2018-11-26T17:27:47.726Z,86.39
2018-11-26T17:33:08.166Z,86.87
2018-11-26T17:38:26.723Z,87.05
2018-11-26T17:43:45.219Z,86.99
2018-11-26T17:49:03.774Z,86.90
2018-11-26T17:54:22.406Z,87.52
2018-11-26T17:59:41.440Z,87.11
2018-11-26T18:04:59.957Z,87.26
2018-11-26T18:10:19.648Z,87.51
2018-11-26T18:15:38.191Z,88.19
2018-11-26T18:20:56.736Z,87.53
2018-11-26T18:26:15.663Z,88.15
2018-11-26T18:31:35.068Z,87.63
2018-11-26T18:36:53.686Z,87.36
2018-11-26T18:42:12.335Z,86.66
2018-11-26T18:47:31.227Z,86.89
2018-11-26T18:52:50.522Z,86.99
2018-11-26T18:58:09.153Z,87.14
2018-11-26T19:03:27.714Z,86.99
2018-11-26T19:08:46.336Z,86.81
2018-11-26T19:14:12.014Z,86.84
2018-11-26T19:19:30.629Z,87.16
2018-11-26T19:24:49.214Z,87.95
2018-11-26T19:30:10.593Z,87.49
2018-11-26T19:35:29.081Z,88.32
2018-11-26T19:40:47.725Z,88.22
2018-11-26T19:46:06.829Z,87.60
2018-11-26T19:51:25.475Z,87.35
2018-11-26T19:56:44.058Z,87.75
2018-11-26T20:02:03.037Z,86.79
2018-11-26T20:07:21.784Z,86.95
2018-11-26T20:12:40.511Z,87.08
2018-11-26T20:17:59.257Z,87.57
2018-11-26T20:23:17.899Z,87.90
2018-11-26T20:28:36.446Z,87.95
2018-11-26T20:33:54.961Z,87.70
2018-11-26T20:39:13.513Z,87.58
2018-11-26T20:44:32.115Z,87.53
2018-11-26T20:49:50.731Z,87.48
2018-11-26T20:55:11.835Z,87.28
2018-11-26T21:00:30.415Z,87.88
2018-11-26T21:05:48.945Z,87.80
2018-11-26T21:11:07.633Z,87.31
2018-11-26T21:16:26.194Z,87.63
2018-11-26T21:21:44.846Z,87.91
2018-11-26T21:27:03.472Z,87.56
2018-11-26T21:32:22.091Z,87.24
2018-11-26T21:37:41.708Z,87.77
2018-11-26T21:43:00.688Z,88.28
2018-11-26T21:48:18.928Z,87.67
2018-11-26T21:53:37.723Z,88.14
2018-11-26T21:58:56.288Z,88.07
2018-11-26T22:04:14.934Z,88.64
2018-11-26T22:09:33.490Z,88.41
2018-11-26T22:14:51.987Z,87.99
2018-11-26T22:20:31.930Z,87.83
2018-11-26T22:25:50.487Z,88.18
2018-11-26T22:31:09.082Z,88.22
2018-11-26T22:36:27.574Z,88.09
2018-11-26T22:41:46.116Z,88.15
2018-11-26T22:47:04.692Z,88.04
2018-11-26T22:52:23.332Z,87.84
2018-11-26T22:57:42.293Z,87.39
2018-11-26T23:03:01.325Z,87.25
2018-11-26T23:08:19.850Z,87.30
2018-11-26T23:13:38.616Z,88.53
2018-11-26T23:18:57.129Z,89.77
2018-11-26T23:24:15.687Z,88.86
2018-11-26T23:29:34.520Z,88.29
2018-11-26T23:34:53.075Z,88.63
2018-11-26T23:40:12.681Z,88.35
2018-11-26T23:45:31.204Z,88.57
2018-11-26T23:50:49.806Z,89.37
2018-11-26T23:56:08.532Z,88.95
